createdAt,value
2022-08-20T00:01:22.284Z,19.70
2022-08-20T00:03:53.308Z,19.80
2022-08-20T00:06:20.111Z,19.70
2022-08-20T00:08:46.681Z,19.80
2022-08-20T00:11:13.265Z,19.80
2022-08-20T00:13:40.103Z,19.80
2022-08-20T00:16:06.671Z,19.80
2022-08-20T00:18:33.231Z,19.80
2022-08-20T00:21:00.960Z,19.70
2022-08-20T00:23:27.560Z,19.70
2022-08-20T00:25:54.127Z,19.70
2022-08-20T00:28:20.761Z,19.70
2022-08-20T00:30:47.329Z,19.70
2022-08-20T00:33:13.906Z,19.60
2022-08-20T00:35:40.453Z,19.60
2022-08-20T00:38:07.024Z,19.50
2022-08-20T00:40:34.341Z,19.50
2022-08-20T00:43:00.979Z,19.50
2022-08-20T00:45:27.552Z,19.50
2022-08-20T00:47:57.365Z,19.50
2022-08-20T00:50:24.319Z,19.50
2022-08-20T00:52:50.872Z,19.50
2022-08-20T00:55:17.409Z,19.60
2022-08-20T00:57:59.163Z,19.50
2022-08-20T01:00:28.223Z,19.50
2022-08-20T01:02:55.041Z,19.50
2022-08-20T01:05:23.450Z,19.60
2022-08-20T01:07:56.357Z,19.60
2022-08-20T01:10:23.023Z,19.60
2022-08-20T01:12:49.556Z,19.60
2022-08-20T01:15:26.913Z,19.60
2022-08-20T01:18:00.893Z,19.60
2022-08-20T01:20:27.441Z,19.50
2022-08-20T01:23:12.989Z,19.50
2022-08-20T01:25:39.515Z,19.50
2022-08-20T01:28:06.079Z,19.40
2022-08-20T01:30:32.652Z,19.30
2022-08-20T01:32:59.191Z,19.20
2022-08-20T01:35:25.798Z,19.10
2022-08-20T01:37:52.379Z,19.00
2022-08-20T01:40:19.024Z,18.90
2022-08-20T01:42:52.806Z,18.90
2022-08-20T01:45:27.928Z,18.80
2022-08-20T01:47:55.804Z,18.60
2022-08-20T01:50:24.148Z,18.60
2022-08-20T01:52:50.715Z,18.50
2022-08-20T01:55:17.253Z,18.50
2022-08-20T01:57:43.848Z,18.50
2022-08-20T02:00:11.114Z,18.50
2022-08-20T02:02:46.869Z,18.50
2022-08-20T02:05:13.850Z,18.40
2022-08-20T02:07:40.409Z,18.40
2022-08-20T02:10:06.993Z,18.40
2022-08-20T02:12:33.569Z,18.30
2022-08-20T02:15:00.489Z,18.30
2022-08-20T02:17:27.460Z,18.30
2022-08-20T02:19:54.182Z,18.20
2022-08-20T02:22:20.779Z,18.20
2022-08-20T02:24:48.160Z,18.10
2022-08-20T02:27:14.736Z,18.10
2022-08-20T02:29:41.331Z,18.10
2022-08-20T02:32:24.736Z,18.00
2022-08-20T02:34:55.454Z,18.00
2022-08-20T02:37:22.049Z,18.00
2022-08-20T02:39:48.694Z,17.90
2022-08-20T02:42:15.236Z,17.90
2022-08-20T02:44:41.801Z,17.90
2022-08-20T02:47:08.387Z,17.90
2022-08-20T02:49:35.436Z,17.80
2022-08-20T02:52:01.981Z,17.80
2022-08-20T02:54:29.338Z,17.80
2022-08-20T02:56:55.936Z,17.80
2022-08-20T02:59:22.521Z,17.90
2022-08-20T03:01:58.112Z,18.00
2022-08-20T03:04:27.210Z,18.00
2022-08-20T03:06:53.931Z,18.10
2022-08-20T03:09:20.577Z,18.20
2022-08-20T03:11:47.112Z,18.20
2022-08-20T03:14:13.910Z,18.20
2022-08-20T03:16:40.452Z,18.20
2022-08-20T03:19:07.556Z,18.30
2022-08-20T03:21:37.206Z,18.30
2022-08-20T03:24:03.782Z,18.30
2022-08-20T03:26:30.377Z,18.20
2022-08-20T03:28:56.922Z,18.10
2022-08-20T03:31:23.462Z,18.00
2022-08-20T03:33:53.374Z,18.00
2022-08-20T03:36:26.662Z,18.00
2022-08-20T03:38:55.290Z,17.90
2022-08-20T03:41:21.842Z,18.00
2022-08-20T03:43:48.447Z,17.90
2022-08-20T03:46:23.580Z,18.00
2022-08-20T03:48:50.580Z,17.90
2022-08-20T03:51:25.650Z,17.90
2022-08-20T03:53:52.314Z,17.90
2022-08-20T03:56:19.291Z,17.90
2022-08-20T03:58:46.334Z,17.90
2022-08-20T04:01:44.675Z,18.00
2022-08-20T04:03:59.498Z,18.00
2022-08-20T04:06:26.445Z,18.00
2022-08-20T04:08:53.782Z,17.90
2022-08-20T04:11:20.356Z,17.90
2022-08-20T04:13:46.913Z,17.90
2022-08-20T04:16:16.221Z,17.90
2022-08-20T04:18:43.416Z,17.90
2022-08-20T04:21:31.562Z,17.90
2022-08-20T04:23:59.836Z,17.90
2022-08-20T04:26:26.829Z,17.90
2022-08-20T04:28:55.326Z,17.90
2022-08-20T04:31:25.292Z,18.00
2022-08-20T04:33:52.309Z,17.90
2022-08-20T04:36:18.857Z,18.00
2022-08-20T04:38:50.297Z,18.10
2022-08-20T04:41:23.102Z,18.10
2022-08-20T04:43:50.428Z,18.10
2022-08-20T04:46:17.080Z,18.00
2022-08-20T04:48:48.691Z,18.10
2022-08-20T04:51:16.685Z,18.10
2022-08-20T04:53:43.327Z,18.10
2022-08-20T04:56:09.944Z,18.10
2022-08-20T04:58:36.521Z,18.20
2022-08-20T05:01:03.889Z,18.20
2022-08-20T05:03:30.585Z,18.30
2022-08-20T05:05:57.385Z,18.30
2022-08-20T05:08:24.311Z,18.30
2022-08-20T05:10:50.866Z,18.20
2022-08-20T05:13:26.792Z,18.20
2022-08-20T05:15:54.526Z,18.20
2022-08-20T05:18:21.102Z,18.20
2022-08-20T05:20:47.761Z,18.20
2022-08-20T05:23:14.333Z,18.20
2022-08-20T05:25:40.905Z,18.20
2022-08-20T05:28:09.487Z,18.20
2022-08-20T05:30:36.250Z,18.20
2022-08-20T05:33:03.913Z,18.20
2022-08-20T05:35:30.554Z,18.30
2022-08-20T05:37:57.610Z,18.30
2022-08-20T05:40:24.683Z,18.30
2022-08-20T05:42:51.386Z,18.30
2022-08-20T05:45:18.140Z,18.30
2022-08-20T05:47:44.811Z,18.30
2022-08-20T05:50:19.795Z,18.30
2022-08-20T05:52:50.165Z,18.30
2022-08-20T05:55:16.711Z,18.30
2022-08-20T05:57:43.302Z,18.30
2022-08-20T06:00:09.862Z,18.30
2022-08-20T06:02:55.725Z,18.30
2022-08-20T06:05:22.572Z,18.30
2022-08-20T06:07:50.661Z,18.40
2022-08-20T06:10:20.168Z,18.40
2022-08-20T06:12:47.298Z,18.40
2022-08-20T06:15:13.847Z,18.40
2022-08-20T06:17:40.586Z,18.50
2022-08-20T06:20:09.058Z,18.50
2022-08-20T06:22:36.200Z,18.60
2022-08-20T06:25:02.800Z,18.60
2022-08-20T06:27:29.742Z,18.70
2022-08-20T06:29:56.576Z,18.70
2022-08-20T06:32:32.296Z,18.70
2022-08-20T06:35:02.006Z,18.70
2022-08-20T06:37:31.215Z,18.70
2022-08-20T06:39:58.387Z,18.70
2022-08-20T06:42:24.966Z,18.70
2022-08-20T06:44:51.505Z,18.70
2022-08-20T06:47:18.090Z,18.60
2022-08-20T06:49:44.871Z,18.60
2022-08-20T06:52:11.680Z,18.60
2022-08-20T06:54:38.280Z,18.60
2022-08-20T06:57:04.903Z,18.60
2022-08-20T06:59:31.550Z,18.70
2022-08-20T07:01:58.129Z,18.70
2022-08-20T07:04:25.722Z,18.70
2022-08-20T07:06:52.342Z,18.60
2022-08-20T07:09:18.882Z,18.60
2022-08-20T07:11:45.788Z,18.60
2022-08-20T07:14:12.407Z,18.50
2022-08-20T07:16:39.054Z,18.50
2022-08-20T07:19:05.588Z,18.50
2022-08-20T07:21:32.648Z,18.50
2022-08-20T07:23:59.190Z,18.50
2022-08-20T07:26:25.748Z,18.50
2022-08-20T07:28:52.407Z,18.60
2022-08-20T07:31:37.949Z,18.60
2022-08-20T07:34:04.587Z,18.60
2022-08-20T07:36:31.155Z,18.60
2022-08-20T07:38:57.794Z,18.60
2022-08-20T07:41:24.778Z,18.60
2022-08-20T07:43:51.549Z,18.50
2022-08-20T07:46:18.746Z,18.50
2022-08-20T07:48:49.544Z,18.40
2022-08-20T07:51:17.663Z,18.40
2022-08-20T07:53:44.260Z,18.40
2022-08-20T07:56:11.459Z,18.40
2022-08-20T07:58:38.205Z,18.40
2022-08-20T08:01:05.552Z,18.40
2022-08-20T08:03:40.587Z,18.40
2022-08-20T08:06:17.259Z,18.40
2022-08-20T08:08:55.432Z,18.30
2022-08-20T08:11:22.016Z,18.40
2022-08-20T08:13:48.642Z,18.40
2022-08-20T08:16:15.237Z,18.40
2022-08-20T08:18:41.794Z,18.60
2022-08-20T08:21:08.376Z,18.60
2022-08-20T08:23:34.961Z,18.70
2022-08-20T08:26:03.971Z,18.80
2022-08-20T08:28:30.905Z,18.80
2022-08-20T08:30:57.721Z,18.90
2022-08-20T08:33:33.620Z,19.00
2022-08-20T08:36:00.267Z,19.00
2022-08-20T08:38:27.206Z,19.10
2022-08-20T08:40:59.794Z,19.00
2022-08-20T08:43:27.243Z,19.10
2022-08-20T08:45:58.708Z,19.20
2022-08-20T08:48:25.702Z,19.30
2022-08-20T08:50:53.215Z,19.30
2022-08-20T08:53:20.338Z,19.50
2022-08-20T08:55:46.882Z,19.60
2022-08-20T08:58:16.615Z,19.70
2022-08-20T09:00:52.836Z,19.70
2022-08-20T09:03:24.435Z,19.80
2022-08-20T09:05:50.971Z,19.90
2022-08-20T09:08:18.550Z,20.00
2022-08-20T09:10:45.117Z,20.10
2022-08-20T09:13:11.661Z,20.10
2022-08-20T09:15:38.266Z,20.10
2022-08-20T09:18:04.834Z,20.00
2022-08-20T09:20:31.386Z,20.00
2022-08-20T09:22:58.121Z,19.90
2022-08-20T09:25:24.847Z,19.90
2022-08-20T09:27:51.453Z,19.90
2022-08-20T09:30:18.057Z,19.90
2022-08-20T09:32:45.193Z,19.90
2022-08-20T09:35:13.217Z,19.90
2022-08-20T09:37:39.751Z,20.00
2022-08-20T09:40:07.075Z,20.00
2022-08-20T09:42:36.344Z,20.00
2022-08-20T09:45:10.858Z,19.90
2022-08-20T09:47:38.234Z,19.90
2022-08-20T09:50:08.244Z,19.90
2022-08-20T09:52:40.658Z,20.00
2022-08-20T09:55:07.406Z,19.90
2022-08-20T09:57:33.974Z,20.00
2022-08-20T10:00:00.579Z,20.00
2022-08-20T10:02:27.204Z,20.00
2022-08-20T10:04:53.813Z,20.10
2022-08-20T10:07:20.419Z,20.10
2022-08-20T10:09:46.962Z,20.20
2022-08-20T10:12:13.554Z,20.30
2022-08-20T10:14:40.114Z,20.40
2022-08-20T10:17:06.699Z,20.70
2022-08-20T10:19:33.594Z,21.00
2022-08-20T10:22:00.217Z,21.30
2022-08-20T10:24:26.824Z,21.50
2022-08-20T10:26:53.421Z,21.60
2022-08-20T10:29:20.005Z,21.70
2022-08-20T10:31:46.612Z,21.70
2022-08-20T10:34:13.154Z,21.90
2022-08-20T10:36:39.716Z,22.20
2022-08-20T10:39:06.315Z,22.30
2022-08-20T10:41:36.103Z,22.40
2022-08-20T10:44:04.993Z,22.50
2022-08-20T10:46:31.653Z,22.60
2022-08-20T10:48:58.217Z,22.50
2022-08-20T10:51:32.368Z,22.50
2022-08-20T10:53:59.453Z,22.60
2022-08-20T10:56:26.019Z,22.80
2022-08-20T10:58:52.548Z,22.90
2022-08-20T11:01:32.678Z,22.80
2022-08-20T11:04:00.657Z,22.80
2022-08-20T11:06:27.649Z,22.60
2022-08-20T11:08:54.218Z,22.50
2022-08-20T11:11:23.685Z,22.40
2022-08-20T11:13:50.256Z,22.30
2022-08-20T11:16:16.842Z,22.30
2022-08-20T11:18:47.488Z,22.40
2022-08-20T11:21:14.277Z,22.40
2022-08-20T11:23:40.889Z,22.20
2022-08-20T11:26:07.491Z,22.00
2022-08-20T11:28:34.071Z,21.80
2022-08-20T11:31:00.774Z,21.70
2022-08-20T11:33:27.307Z,21.60
2022-08-20T11:35:53.870Z,21.50
2022-08-20T11:38:20.496Z,21.50
2022-08-20T11:40:47.295Z,21.60
2022-08-20T11:43:15.549Z,21.90
2022-08-20T11:45:43.097Z,22.10
2022-08-20T11:48:09.675Z,22.30
2022-08-20T11:50:36.251Z,22.40
2022-08-20T11:53:02.883Z,22.70
2022-08-20T11:55:30.220Z,22.80
2022-08-20T11:57:59.654Z,22.80
2022-08-20T12:00:30.409Z,22.80
2022-08-20T12:03:00.610Z,22.80
2022-08-20T12:05:30.120Z,22.90
2022-08-20T12:07:56.803Z,22.90
2022-08-20T12:10:24.446Z,22.90
2022-08-20T12:12:51.058Z,22.80
2022-08-20T12:15:17.613Z,22.80
2022-08-20T12:17:44.194Z,22.80
2022-08-20T12:20:10.836Z,22.80
2022-08-20T12:22:37.437Z,23.00
2022-08-20T12:25:03.950Z,23.30
2022-08-20T12:27:30.575Z,23.50
2022-08-20T12:29:57.165Z,23.70
2022-08-20T12:32:23.957Z,23.90
2022-08-20T12:34:50.508Z,23.90
2022-08-20T12:37:17.147Z,23.80
2022-08-20T12:39:43.745Z,23.60
2022-08-20T12:42:10.857Z,23.50
2022-08-20T12:44:37.487Z,23.30
2022-08-20T12:47:04.041Z,23.30
2022-08-20T12:49:30.582Z,23.40
2022-08-20T12:51:57.151Z,23.40
2022-08-20T12:54:23.776Z,23.50
2022-08-20T12:56:51.960Z,23.50
2022-08-20T12:59:19.226Z,23.70
2022-08-20T13:01:47.689Z,23.90
2022-08-20T13:04:14.399Z,23.90
2022-08-20T13:06:40.997Z,24.10
2022-08-20T13:09:07.631Z,24.30
2022-08-20T13:11:34.279Z,24.50
2022-08-20T13:14:00.825Z,24.60
2022-08-20T13:16:27.449Z,24.60
2022-08-20T13:18:54.117Z,24.60
2022-08-20T13:21:23.914Z,24.40
2022-08-20T13:23:51.141Z,24.30
2022-08-20T13:26:17.738Z,24.40
2022-08-20T13:28:44.284Z,24.50
2022-08-20T13:31:11.125Z,24.50
2022-08-20T13:33:37.783Z,24.60
2022-08-20T13:36:04.362Z,24.50
2022-08-20T13:38:31.328Z,24.50
2022-08-20T13:40:58.025Z,24.60
2022-08-20T13:43:24.683Z,24.60
2022-08-20T13:45:51.257Z,24.50
2022-08-20T13:48:17.890Z,24.30
2022-08-20T13:50:47.273Z,24.30
2022-08-20T13:53:14.139Z,24.30
2022-08-20T13:55:43.258Z,24.30
2022-08-20T13:58:09.820Z,24.40
2022-08-20T14:00:36.497Z,24.30
2022-08-20T14:03:03.056Z,24.20
2022-08-20T14:05:29.628Z,24.20
2022-08-20T14:07:56.221Z,24.30
2022-08-20T14:10:24.202Z,24.40
2022-08-20T14:12:51.582Z,24.50
2022-08-20T14:15:20.139Z,24.50
2022-08-20T14:17:47.003Z,24.50
2022-08-20T14:20:17.842Z,24.50
2022-08-20T14:26:21.899Z,24.50
2022-08-20T14:28:48.418Z,24.50
2022-08-20T14:31:15.019Z,24.60
2022-08-20T14:33:44.677Z,24.60
2022-08-20T14:36:11.494Z,24.50
2022-08-20T14:38:41.377Z,24.50
2022-08-20T14:41:07.934Z,24.30
2022-08-20T14:43:34.540Z,24.30
2022-08-20T14:46:01.157Z,24.30
2022-08-20T14:48:28.238Z,24.30
2022-08-20T14:50:55.845Z,24.40
2022-08-20T14:53:22.368Z,24.40
2022-08-20T14:55:48.937Z,24.60
2022-08-20T14:58:16.825Z,24.60
2022-08-20T15:00:43.479Z,24.60
2022-08-20T15:03:10.124Z,24.60
2022-08-20T15:05:39.673Z,24.60
2022-08-20T15:08:06.690Z,24.70
2022-08-20T15:10:34.097Z,24.70
2022-08-20T15:13:00.797Z,24.70
2022-08-20T15:15:27.432Z,24.70
2022-08-20T15:17:54.943Z,24.60
2022-08-20T15:20:21.551Z,24.60
2022-08-20T15:22:48.171Z,24.70
2022-08-20T15:25:14.796Z,24.60
2022-08-20T15:27:41.827Z,24.50
2022-08-20T15:30:08.402Z,24.40
2022-08-20T15:32:35.047Z,24.20
2022-08-20T15:35:01.598Z,24.10
2022-08-20T15:37:28.200Z,24.10
2022-08-20T15:39:54.820Z,24.30
2022-08-20T15:42:21.391Z,24.40
2022-08-20T15:44:47.969Z,24.50
2022-08-20T15:47:14.971Z,24.50
2022-08-20T15:49:41.494Z,24.40
2022-08-20T15:52:08.060Z,24.30
2022-08-20T15:54:34.729Z,24.30
2022-08-20T15:57:01.359Z,24.10
2022-08-20T15:59:27.908Z,24.30
2022-08-20T16:01:54.578Z,24.40
2022-08-20T16:04:21.245Z,24.50
2022-08-20T16:06:47.803Z,24.70
2022-08-20T16:09:14.413Z,24.80
2022-08-20T16:11:40.964Z,24.90
2022-08-20T16:14:07.492Z,24.90
2022-08-20T16:16:34.865Z,24.90
2022-08-20T16:19:01.432Z,24.70
2022-08-20T16:21:27.988Z,24.60
2022-08-20T16:23:55.460Z,24.60
2022-08-20T16:26:22.006Z,24.70
2022-08-20T16:28:48.539Z,24.50
2022-08-20T16:31:15.279Z,24.20
2022-08-20T16:33:42.065Z,24.00
2022-08-20T16:36:08.606Z,23.80
2022-08-20T16:38:35.167Z,23.70
2022-08-20T16:41:01.779Z,23.70
2022-08-20T16:43:28.321Z,23.70
2022-08-20T16:45:54.912Z,23.80
2022-08-20T16:48:21.504Z,23.90
2022-08-20T16:50:48.050Z,23.90
2022-08-20T16:53:14.637Z,23.90
2022-08-20T16:55:41.930Z,23.90
2022-08-20T16:58:08.520Z,23.90
2022-08-20T17:00:35.799Z,23.80
2022-08-20T17:03:11.679Z,23.70
2022-08-20T17:05:38.231Z,23.70
2022-08-20T17:08:07.122Z,23.80
2022-08-20T17:10:33.861Z,23.90
2022-08-20T17:13:00.475Z,24.00
2022-08-20T17:15:27.088Z,23.90
2022-08-20T17:17:55.683Z,23.80
2022-08-20T17:20:22.238Z,23.70
2022-08-20T17:22:48.800Z,23.70
2022-08-20T17:25:15.385Z,23.50
2022-08-20T17:27:41.927Z,23.30
2022-08-20T17:30:08.475Z,23.30
2022-08-20T17:32:35.042Z,23.30
2022-08-20T17:35:01.638Z,23.30
2022-08-20T17:37:28.252Z,23.50
2022-08-20T17:39:55.121Z,23.40
2022-08-20T17:42:21.766Z,23.50
2022-08-20T17:44:52.255Z,23.30
2022-08-20T17:47:21.792Z,23.20
2022-08-20T17:49:54.073Z,23.10
2022-08-20T17:52:29.547Z,23.00
2022-08-20T17:54:56.315Z,22.90
2022-08-20T17:57:22.926Z,22.80
2022-08-20T18:00:01.194Z,22.70
2022-08-20T18:02:29.402Z,22.70
2022-08-20T18:04:55.948Z,22.50
2022-08-20T18:07:22.517Z,22.40
2022-08-20T18:09:50.112Z,22.30
2022-08-20T18:12:32.750Z,22.20
2022-08-20T18:15:00.970Z,22.00
2022-08-20T18:17:27.987Z,21.90
2022-08-20T18:19:54.527Z,21.70
2022-08-20T18:22:21.123Z,21.60
2022-08-20T18:24:48.048Z,21.40
2022-08-20T18:27:14.685Z,21.30
2022-08-20T18:29:41.250Z,21.10
2022-08-20T18:32:07.778Z,21.00
2022-08-20T18:34:35.136Z,20.80
2022-08-20T18:37:01.985Z,20.70
2022-08-20T18:39:28.540Z,20.60
2022-08-20T18:41:55.147Z,20.50
2022-08-20T18:44:21.683Z,20.40
2022-08-20T18:46:51.508Z,20.40
2022-08-20T18:49:18.300Z,20.30
2022-08-20T18:51:44.902Z,20.30
2022-08-20T18:54:11.481Z,20.20
2022-08-20T18:56:38.174Z,20.20
2022-08-20T18:59:04.767Z,20.10
2022-08-20T19:01:31.398Z,20.00
2022-08-20T19:03:58.131Z,20.00
2022-08-20T19:06:24.749Z,20.00
2022-08-20T19:08:51.504Z,20.00
2022-08-20T19:11:18.061Z,19.90
2022-08-20T19:13:46.000Z,19.80
2022-08-20T19:16:12.675Z,19.70
2022-08-20T19:18:39.244Z,19.60
2022-08-20T19:21:05.788Z,19.50
2022-08-20T19:23:42.297Z,19.50
2022-08-20T19:26:24.799Z,19.40
2022-08-20T19:28:52.282Z,19.30
2022-08-20T19:31:19.001Z,19.30
2022-08-20T19:33:46.822Z,19.30
2022-08-20T19:36:13.427Z,19.20
2022-08-20T19:38:39.965Z,19.10
2022-08-20T19:41:11.203Z,19.00
2022-08-20T19:43:38.429Z,18.90
2022-08-20T19:46:05.017Z,18.90
2022-08-20T19:48:31.550Z,18.80
2022-08-20T19:50:58.160Z,18.70
2022-08-20T19:53:30.319Z,18.60
2022-08-20T19:55:57.537Z,18.60
2022-08-20T19:58:26.684Z,18.50
2022-08-20T20:00:53.964Z,18.40
2022-08-20T20:03:21.900Z,18.40
2022-08-20T20:05:48.791Z,18.40
2022-08-20T20:08:15.829Z,18.30
2022-08-20T20:10:42.582Z,18.30
2022-08-20T20:13:09.132Z,18.30
2022-08-20T20:15:35.683Z,18.30
2022-08-20T20:18:02.252Z,18.30
2022-08-20T20:20:29.075Z,18.20
2022-08-20T20:22:55.848Z,18.20
2022-08-20T20:25:22.481Z,18.10
2022-08-20T20:27:49.043Z,18.10
2022-08-20T20:30:15.609Z,18.10
2022-08-20T20:32:42.189Z,18.10
2022-08-20T20:35:09.063Z,18.10
2022-08-20T20:37:41.536Z,18.10
2022-08-20T20:40:19.486Z,18.00
2022-08-20T20:42:47.060Z,18.00
2022-08-20T20:45:13.631Z,18.00
2022-08-20T20:47:40.143Z,18.00
2022-08-20T20:50:06.690Z,18.00
2022-08-20T20:52:33.325Z,18.00
2022-08-20T20:54:59.859Z,18.00
2022-08-20T20:57:38.488Z,18.00
2022-08-20T21:00:05.823Z,17.90
2022-08-20T21:02:33.432Z,17.90
2022-08-20T21:05:00.050Z,17.90
2022-08-20T21:07:26.621Z,17.80
2022-08-20T21:09:53.382Z,17.70
2022-08-20T21:12:20.273Z,17.70
2022-08-20T21:14:46.853Z,17.60
2022-08-20T21:17:13.435Z,17.50
2022-08-20T21:19:43.841Z,17.50
2022-08-20T21:22:11.958Z,17.50
2022-08-20T21:24:38.496Z,17.40
2022-08-20T21:27:05.082Z,17.30
2022-08-20T21:29:32.626Z,17.30
2022-08-20T21:31:59.572Z,17.30
2022-08-20T21:34:26.120Z,17.30
2022-08-20T21:36:53.083Z,17.30
2022-08-20T21:39:20.759Z,17.20
2022-08-20T21:41:47.296Z,17.20
2022-08-20T21:44:13.832Z,17.20
2022-08-20T21:46:42.003Z,17.20
2022-08-20T21:49:08.578Z,17.20
2022-08-20T21:51:35.937Z,17.20
2022-08-20T21:54:02.583Z,17.20
2022-08-20T21:56:29.208Z,17.10
2022-08-20T21:58:58.714Z,17.10
2022-08-20T22:01:25.329Z,17.10
2022-08-20T22:03:52.059Z,17.00
2022-08-20T22:06:18.692Z,17.00
2022-08-20T22:08:45.277Z,16.90
2022-08-20T22:11:11.841Z,16.90
2022-08-20T22:13:38.396Z,16.90
2022-08-20T22:16:04.970Z,16.90
2022-08-20T22:18:31.521Z,16.90
2022-08-20T22:20:58.233Z,16.90
2022-08-20T22:23:24.797Z,16.80
2022-08-20T22:25:51.354Z,16.80
2022-08-20T22:28:17.917Z,16.80
2022-08-20T22:30:44.490Z,16.80
2022-08-20T22:33:11.104Z,16.80
2022-08-20T22:35:37.619Z,16.70
2022-08-20T22:38:04.228Z,16.70
2022-08-20T22:40:30.763Z,16.60
2022-08-20T22:42:57.549Z,16.60
2022-08-20T22:45:24.151Z,16.50
2022-08-20T22:47:50.713Z,16.50
2022-08-20T22:50:17.263Z,16.50
2022-08-20T22:52:45.259Z,16.50
2022-08-20T22:55:11.783Z,16.40
2022-08-20T22:57:38.829Z,16.40
2022-08-20T23:00:05.367Z,16.40
2022-08-20T23:02:31.995Z,16.40
2022-08-20T23:04:58.526Z,16.30
2022-08-20T23:07:25.103Z,16.30
2022-08-20T23:09:51.662Z,16.30
2022-08-20T23:12:18.277Z,16.30
2022-08-20T23:14:44.902Z,16.20
2022-08-20T23:17:13.642Z,16.20
2022-08-20T23:19:40.505Z,16.20
2022-08-20T23:22:07.123Z,16.20
2022-08-20T23:24:33.664Z,16.20
2022-08-20T23:27:00.231Z,16.10
2022-08-20T23:29:26.826Z,16.10
2022-08-20T23:31:53.368Z,16.10
2022-08-20T23:34:19.906Z,16.10
2022-08-20T23:36:46.435Z,16.10
2022-08-20T23:39:13.122Z,16.20
2022-08-20T23:41:43.074Z,16.20
2022-08-20T23:44:26.196Z,16.20
2022-08-20T23:46:54.658Z,16.20
2022-08-20T23:49:21.314Z,16.20
2022-08-20T23:51:48.307Z,16.20
2022-08-20T23:54:14.972Z,16.10
2022-08-20T23:56:41.539Z,16.20
2022-08-20T23:59:08.121Z,16.10
